Time;durP1;ratioP1;P1;durP2;ratioP2;P2;SDS_P1;SDS_P2;PMS_P1;PMS_P2;Temp;Humidity;BMP_temperature;BMP_pressure;BME280_temperature;BME280_humidity;BME280_pressure;Samples;Min_cycle;Max_cycle;Signal;HPM_P1;HPM_P2
2023/09/08 00:01:06;;;;;;;6.30;5.70;;;20.70;90.50;;;20.71;59.45;101335.00;5052632;28;20489;-73
2023/09/08 00:03:40;;;;;;;7.55;6.15;;;20.70;90.50;;;20.56;59.45;101334.38;5051902;28;20936;-71
2023/09/08 00:06:13;;;;;;;6.80;6.05;;;20.70;90.60;;;20.54;59.73;101339.22;5052388;28;20443;-72
2023/09/08 00:08:46;;;;;;;10.10;6.22;;;20.60;90.80;;;20.46;60.35;101335.88;5052689;28;20446;-73
2023/09/08 00:11:19;;;;;;;10.53;6.27;;;20.40;91.00;;;20.36;60.40;101338.16;5051854;28;20864;-73
2023/09/08 00:13:53;;;;;;;6.93;5.80;;;20.30;91.20;;;20.52;60.31;101335.84;5053090;28;20621;-73
2023/09/08 00:16:26;;;;;;;8.48;6.18;;;20.50;91.10;;;20.57;59.88;101327.91;5052119;28;20448;-73
2023/09/08 00:19:01;;;;;;;6.83;6.20;;;20.60;91.30;;;20.49;60.04;101335.44;5052033;28;20430;-73
2023/09/08 00:21:34;;;;;;;6.57;5.97;;;20.50;90.90;;;20.37;60.57;101327.09;5052113;28;20412;-73
2023/09/08 00:24:09;;;;;;;7.88;6.60;;;20.40;91.20;;;20.42;59.97;101324.56;5052090;28;20498;-73
2023/09/08 00:26:42;;;;;;;6.78;5.95;;;20.40;91.20;;;20.30;60.28;101326.25;5051696;28;20459;-73
2023/09/08 00:29:16;;;;;;;7.00;5.60;;;20.30;91.70;;;20.25;60.06;101326.84;5052514;28;20467;-73
2023/09/08 00:31:49;;;;;;;7.20;6.50;;;20.30;91.70;;;20.09;60.99;101326.44;5051743;28;20430;-73
2023/09/08 00:34:22;;;;;;;7.82;6.35;;;20.10;91.80;;;20.13;61.01;101324.97;5052170;28;20539;-73
2023/09/08 00:36:55;;;;;;;6.78;6.03;;;20.10;97.10;;;20.01;61.09;101319.31;5051711;28;20430;-73
2023/09/08 00:39:29;;;;;;;7.78;6.10;;;20.10;91.70;;;19.93;61.55;101324.13;5053589;28;20511;-73
2023/09/08 00:42:02;;;;;;;9.45;6.75;;;20.00;91.80;;;19.87;61.37;101324.94;5055138;28;20974;-73
2023/09/08 00:44:36;;;;;;;9.18;6.68;;;19.90;91.90;;;19.83;61.71;101316.34;5055435;28;20515;-73
2023/09/08 00:47:10;;;;;;;10.85;6.32;;;19.80;92.30;;;19.66;62.78;101318.63;5055511;28;20519;-73
2023/09/08 00:49:43;;;;;;;8.07;6.50;;;19.70;92.40;;;19.76;62.27;101312.78;5055282;28;20420;-73
2023/09/08 00:52:17;;;;;;;9.43;6.10;;;19.80;92.60;;;19.67;62.74;101322.19;5055361;28;20542;-73
2023/09/08 00:54:50;;;;;;;8.65;6.13;;;19.70;92.70;;;19.79;62.01;101317.00;5056254;28;20428;-73
2023/09/08 00:57:23;;;;;;;7.70;6.27;;;19.90;92.50;;;19.73;61.87;101324.06;5055801;28;20522;-73
2023/09/08 00:59:58;;;;;;;7.60;6.18;;;19.80;92.40;;;19.58;62.56;101321.56;5054787;28;20866;-73
2023/09/08 01:02:32;;;;;;;8.77;6.87;;;19.80;92.60;;;19.48;63.23;101315.69;5055166;28;20424;-73
2023/09/08 01:05:06;;;;;;;7.17;5.93;;;19.50;92.90;;;19.51;62.69;101323.41;5056240;28;20428;-73
2023/09/08 01:07:41;;;;;;;7.60;6.13;;;19.60;92.80;;;19.61;62.77;101321.13;5055648;28;20526;-73
2023/09/08 01:10:16;;;;;;;8.05;6.38;;;19.70;92.70;;;19.42;63.00;101321.91;5055147;28;20477;-73
2023/09/08 01:12:49;;;;;;;8.52;6.93;;;19.50;93.10;;;19.35;62.95;101320.19;5055015;28;20547;-73
2023/09/08 01:15:22;;;;;;;8.23;6.57;;;19.50;92.90;;;19.38;63.78;101319.78;5055129;28;20510;-73
2023/09/08 01:17:56;;;;;;;8.05;6.47;;;19.40;93.30;;;19.34;63.76;101319.34;5055147;28;20435;-73
2023/09/08 01:20:37;;;;;;;8.98;6.68;;;19.40;93.30;;;19.35;63.94;101320.19;5055938;28;20431;-73
2023/09/08 01:23:22;;;;;;;8.60;6.43;;;19.40;93.40;;;19.30;63.97;101319.94;5055434;28;20423;-72
2023/09/08 01:26:05;;;;;;;7.32;6.63;;;19.30;93.60;;;19.26;63.94;101311.38;5054788;28;20502;-72
2023/09/08 01:28:40;;;;;;;7.90;6.60;;;19.30;93.50;;;19.02;64.85;101320.03;5054343;28;20947;-72
2023/09/08 01:31:15;;;;;;;7.90;6.57;;;19.10;93.90;;;19.00;64.85;101313.97;5054305;28;20922;-73
2023/09/08 01:33:49;;;;;;;7.32;6.63;;;19.10;94.00;;;18.91;65.52;101313.28;5054424;28;20497;-73
2023/09/08 01:36:23;;;;;;;7.95;6.68;;;18.90;94.50;;;19.07;64.51;101304.00;5054884;28;20434;-73
2023/09/08 01:38:56;;;;;;;9.35;6.78;;;19.10;94.10;;;18.89;64.73;101309.97;5054798;28;20514;-73
2023/09/08 01:41:31;;;;;;;7.53;6.75;;;19.00;94.10;;;18.81;65.40;101301.13;5054799;28;20448;-73
2023/09/08 01:44:10;;;;;;;8.82;7.13;;;18.90;94.30;;;18.86;65.14;101304.94;5054296;28;20431;-73
2023/09/08 01:46:44;;;;;;;8.23;6.70;;;19.10;94.20;;;18.90;64.75;101302.66;5054005;28;20762;-73
2023/09/08 01:49:17;;;;;;;10.27;7.10;;;19.20;94.30;;;18.92;64.74;101304.13;5054727;28;20463;-73
2023/09/08 01:51:51;;;;;;;8.45;6.57;;;19.00;94.60;;;18.84;65.35;101306.16;5054848;28;20783;-72
2023/09/08 01:54:24;;;;;;;9.35;6.70;;;18.80;94.60;;;19.03;65.07;101311.72;5054057;28;20456;-72
2023/09/08 01:56:58;;;;;;;8.10;6.57;;;19.30;94.30;;;18.86;65.00;101310.38;5054731;28;20462;-73
2023/09/08 01:59:31;;;;;;;9.48;7.15;;;19.00;94.20;;;18.82;65.68;101308.25;5054169;28;20511;-72
2023/09/08 02:02:04;;;;;;;9.68;7.20;;;18.90;94.70;;;18.82;65.63;101313.66;5055084;28;20424;-72
2023/09/08 02:04:38;;;;;;;8.35;7.35;;;19.40;94.70;;;18.79;65.46;101311.34;5054542;28;20424;-72
2023/09/08 02:07:11;;;;;;;9.15;7.07;;;18.90;94.50;;;18.85;64.88;101307.84;5053670;28;20914;-71
2023/09/08 02:09:44;;;;;;;8.95;7.13;;;19.00;94.40;;;18.50;66.54;101299.69;5053732;28;20511;-72
2023/09/08 02:12:17;;;;;;;11.03;7.40;;;18.60;95.10;;;18.62;65.88;101306.25;5054477;28;20475;-72
2023/09/08 02:14:51;;;;;;;9.73;7.95;;;18.80;95.00;;;18.52;66.48;101300.34;5053804;28;20536;-73
2023/09/08 02:17:25;;;;;;;9.65;6.95;;;18.70;95.10;;;18.68;66.00;101301.91;5054576;28;20428;-72
2023/09/08 02:19:58;;;;;;;7.20;6.53;;;18.90;95.00;;;18.82;64.90;101308.25;5054811;28;20252;-72
2023/09/08 02:22:32;;;;;;;9.20;7.35;;;19.10;94.50;;;18.84;65.22;101309.72;5053594;28;20494;-72
2023/09/08 02:25:05;;;;;;;8.70;6.70;;;19.10;94.40;;;18.88;65.32;101310.16;5053532;28;20468;-73
2023/09/08 02:27:39;;;;;;;9.25;7.03;;;19.10;94.30;;;18.79;65.51;101306.78;5053927;28;20424;-73
2023/09/08 02:30:15;;;;;;;8.75;7.18;;;18.90;94.70;;;18.67;65.32;101301.06;5053900;28;20428;-73
2023/09/08 02:32:49;;;;;;;9.40;7.13;;;18.90;94.40;;;18.40;66.61;101299.19;5053419;28;20862;-73
2023/09/08 02:35:23;;;;;;;9.32;7.28;;;18.50;95.40;;;18.44;66.57;101302.34;5053442;28;20427;-73
2023/09/08 02:37:58;;;;;;;8.60;7.30;;;18.70;95.60;;;18.43;66.23;101295.22;5053269;28;20424;-73
2023/09/08 02:40:34;;;;;;;8.30;7.50;;;18.70;95.00;;;18.17;67.55;101290.47;5053226;28;20424;-73
2023/09/08 02:43:07;;;;;;;8.88;7.40;;;18.20;95.90;;;18.16;66.91;101296.91;5053126;28;20424;-71
2023/09/08 02:45:41;;;;;;;8.75;7.25;;;18.30;95.60;;;17.99;68.27;101284.66;5053619;28;20482;-72
2023/09/08 02:48:14;;;;;;;10.82;7.18;;;18.00;99.90;;;18.15;67.03;101289.84;5053040;28;20419;-71
2023/09/08 02:50:48;;;;;;;9.82;7.25;;;18.40;95.70;;;18.11;67.24;101293.97;5052664;28;20972;-71
2023/09/08 02:53:21;;;;;;;8.10;7.20;;;18.30;95.90;;;18.10;67.19;101292.28;5053366;28;20451;-71
2023/09/08 02:55:55;;;;;;;9.07;7.50;;;18.30;95.90;;;17.94;67.96;101297.97;5052881;28;20519;-71
2023/09/08 02:58:30;;;;;;;11.02;7.40;;;18.10;96.20;;;18.07;66.99;101293.50;5053222;28;20852;-71
2023/09/08 03:01:16;;;;;;;9.23;7.50;;;18.20;99.90;;;18.04;67.25;101298.50;5052754;28;20451;-73
2023/09/08 03:03:49;;;;;;;10.88;7.30;;;18.40;99.90;;;18.06;67.38;101294.53;5052512;28;20834;-73
2023/09/08 03:06:24;;;;;;;9.55;7.45;;;18.40;99.90;;;18.17;67.43;101288.59;5052633;28;20477;-73
2023/09/08 03:08:59;;;;;;;8.30;7.45;;;18.50;95.90;;;18.15;66.74;101295.25;5052710;28;20452;-73
2023/09/08 03:11:32;;;;;;;7.88;7.07;;;18.40;95.70;;;18.08;67.69;101294.34;5052622;28;20503;-73
2023/09/08 03:14:06;;;;;;;10.67;7.80;;;18.30;95.90;;;18.00;66.83;101292.63;5052878;28;20478;-73
2023/09/08 03:16:39;;;;;;;8.52;7.60;;;18.20;95.70;;;18.14;67.31;101293.56;5052562;28;20428;-73
2023/09/08 03:19:13;;;;;;;7.73;6.97;;;18.50;95.90;;;17.91;67.24;101284.84;5052512;28;20420;-70
2023/09/08 03:21:46;;;;;;;8.87;7.30;;;18.20;95.80;;;17.70;68.72;101291.94;5053741;28;20792;-70
2023/09/08 03:24:20;;;;;;;9.80;7.30;;;17.80;96.70;;;17.65;69.24;101288.94;5052989;28;20498;-72
2023/09/08 03:26:53;;;;;;;10.73;7.60;;;17.80;97.00;;;17.49;69.65;101293.75;5052269;28;20777;-71
2023/09/08 03:29:27;;;;;;;9.13;7.72;;;17.70;97.30;;;17.27;70.26;101292.88;5052569;28;20424;-71
2023/09/08 03:32:00;;;;;;;10.52;7.72;;;17.40;97.80;;;17.27;70.24;101287.44;5052505;28;20459;-72
2023/09/08 03:34:34;;;;;;;11.00;7.25;;;17.50;97.50;;;17.19;70.00;101284.88;5052272;28;20447;-72
2023/09/08 03:37:08;;;;;;;8.10;7.30;;;17.40;98.10;;;17.26;69.82;101283.06;5053547;28;20191;-72
2023/09/08 03:39:41;;;;;;;8.27;7.07;;;17.60;99.90;;;17.21;70.33;101280.94;5052180;28;20431;-72
2023/09/08 03:42:15;;;;;;;8.27;7.47;;;17.40;97.80;;;17.20;70.51;101286.53;5052205;28;20481;-72
2023/09/08 03:44:48;;;;;;;9.07;7.50;;;17.40;98.00;;;17.26;70.42;101287.66;5052409;28;20495;-72
2023/09/08 03:47:22;;;;;;;8.52;7.43;;;17.40;97.70;;;17.10;70.84;101286.00;5052200;28;20455;-72
2023/09/08 03:49:55;;;;;;;8.50;7.70;;;17.30;98.40;;;17.17;69.44;101281.50;5052158;28;20424;-72
2023/09/08 03:52:28;;;;;;;8.60;7.68;;;17.40;97.70;;;16.95;72.34;101293.31;5052431;28;20872;-72
2023/09/08 03:55:02;;;;;;;8.93;7.47;;;17.10;98.90;;;17.21;69.77;101285.53;5052031;28;20452;-72
2023/09/08 03:57:35;;;;;;;8.68;7.50;;;17.40;98.20;;;17.15;70.19;101291.69;5051829;28;20420;-72
2023/09/08 04:00:11;;;;;;;9.00;8.10;;;17.60;97.80;;;17.07;71.04;101278.25;5052686;28;20566;-72
2023/09/08 04:02:45;;;;;;;9.10;7.18;;;17.20;98.40;;;16.99;71.14;101281.06;5052032;28;20482;-72
2023/09/08 04:05:18;;;;;;;9.05;8.10;;;17.20;98.70;;;16.98;71.10;101280.25;5051705;28;20870;-72
2023/09/08 04:07:51;;;;;;;9.23;7.15;;;17.30;98.60;;;16.91;70.78;101283.91;5051794;28;20878;-72
2023/09/08 04:10:25;;;;;;;8.23;7.43;;;17.10;98.90;;;16.94;71.31;101286.22;5051983;28;20478;-72
2023/09/08 04:12:58;;;;;;;10.82;7.80;;;17.10;99.30;;;16.81;71.61;101277.94;5052069;28;20495;-72
2023/09/08 04:15:31;;;;;;;8.83;7.70;;;17.00;99.00;;;16.89;71.49;101280.53;5054747;28;21015;-72
2023/09/08 04:18:04;;;;;;;9.30;8.17;;;17.00;99.70;;;16.91;72.12;101281.19;5056159;28;20430;-72
2023/09/08 04:20:39;;;;;;;9.60;8.32;;;17.10;99.20;;;16.89;71.59;101278.66;5056095;28;20510;-72
2023/09/08 04:23:12;;;;;;;10.57;7.60;;;17.10;99.40;;;16.87;71.93;101282.59;5056497;28;20466;-72
2023/09/08 04:25:46;;;;;;;8.55;7.47;;;17.20;99.30;;;16.79;72.38;101277.28;5056692;28;20511;-71
2023/09/08 04:28:20;;;;;;;9.07;7.50;;;16.90;99.90;;;16.91;71.73;101278.50;5055916;28;20458;-72
2023/09/08 04:30:53;;;;;;;9.82;8.63;;;17.10;99.70;;;16.76;72.48;101281.19;5055600;28;20502;-72
2023/09/08 04:33:29;;;;;;;9.63;8.35;;;17.00;99.90;;;16.72;72.92;101279.88;5055719;28;20454;-72
2023/09/08 04:36:02;;;;;;;9.35;8.43;;;17.00;99.60;;;16.59;72.76;101280.53;5056909;28;20450;-72
2023/09/08 04:38:36;;;;;;;9.13;7.97;;;16.80;99.90;;;16.70;73.20;101282.78;5055468;28;20427;-72
2023/09/08 04:41:09;;;;;;;9.10;8.20;;;17.00;99.90;;;16.76;72.25;101280.34;5055712;28;20507;-72
2023/09/08 04:43:43;;;;;;;9.23;8.43;;;17.00;99.90;;;16.62;71.98;101274.75;5055190;28;20977;-72
2023/09/08 04:46:16;;;;;;;10.15;8.40;;;16.90;99.90;;;16.61;72.25;101280.38;5055431;28;20506;-72
2023/09/08 04:48:49;;;;;;;9.48;8.15;;;16.80;99.90;;;16.63;73.04;101271.03;5053876;28;20459;-72
2023/09/08 04:51:22;;;;;;;9.30;8.40;;;16.90;99.90;;;16.70;72.36;101263.88;5055330;28;20518;-72
2023/09/08 04:53:56;;;;;;;9.20;8.23;;;17.00;99.90;;;16.73;72.29;101258.06;5055076;28;20897;-72
2023/09/08 04:56:29;;;;;;;11.02;9.00;;;17.10;99.90;;;16.61;73.07;101275.78;5055387;28;20427;-72
2023/09/08 04:59:03;;;;;;;11.93;9.02;;;16.80;99.90;;;16.52;74.25;101263.34;5055262;28;20430;-72
2023/09/08 05:01:37;;;;;;;9.20;8.07;;;16.80;99.90;;;16.49;73.82;101271.84;5055670;28;20551;-72
2023/09/08 05:04:12;;;;;;;9.43;8.43;;;16.70;99.90;;;16.46;74.20;101271.38;5055724;28;20428;-71
2023/09/08 05:06:45;;;;;;;10.05;9.02;;;16.70;99.90;;;16.45;75.29;101273.25;5055386;28;20435;-71
2023/09/08 05:09:19;;;;;;;10.07;8.98;;;16.70;99.90;;;16.34;74.26;101270.97;5054877;28;20886;-72
2023/09/08 05:11:52;;;;;;;10.55;9.02;;;16.60;99.90;;;16.33;75.66;101268.47;5055195;28;20515;-72
2023/09/08 05:14:25;;;;;;;10.07;9.07;;;16.80;99.90;;;16.45;74.59;101277.78;5054909;28;20439;-72
2023/09/08 05:16:59;;;;;;;9.30;8.40;;;16.80;99.90;;;16.49;73.84;101273.72;5054521;28;20965;-72
2023/09/08 05:19:32;;;;;;;9.60;8.70;;;16.90;99.90;;;16.36;74.67;101278.91;5054774;28;20862;-72
2023/09/08 05:22:08;;;;;;;9.13;8.23;;;16.60;99.90;;;16.49;74.04;101277.25;5055924;28;20657;-72
2023/09/08 05:24:42;;;;;;;10.00;8.90;;;16.80;99.90;;;16.54;74.65;101277.50;5055318;28;20468;-72
2023/09/08 05:27:15;;;;;;;9.60;8.70;;;16.80;99.90;;;16.64;74.00;101283.50;5055130;28;20869;-72
2023/09/08 05:29:49;;;;;;;10.07;9.07;;;16.90;99.90;;;16.64;74.39;101280.00;5054626;28;20420;-72
2023/09/08 05:32:22;;;;;;;10.25;9.25;;;17.00;99.90;;;16.59;74.45;101280.53;5054619;28;20786;-72
2023/09/08 05:34:56;;;;;;;10.93;9.52;;;17.00;99.90;;;16.60;74.94;101276.84;5054646;28;20940;-72
2023/09/08 05:37:29;;;;;;;11.00;9.68;;;17.00;99.90;;;16.57;74.87;101282.63;5054433;28;20486;-72
2023/09/08 05:40:04;;;;;;;11.35;9.90;;;16.90;99.90;;;16.56;75.43;101280.94;5054332;28;20467;-72
2023/09/08 05:42:37;;;;;;;11.07;9.55;;;16.90;99.90;;;16.55;76.01;101287.34;5054434;28;20431;-72
2023/09/08 05:45:13;;;;;;;12.98;10.20;;;16.90;99.90;;;16.56;75.24;101280.94;5054313;28;20515;-72
2023/09/08 05:47:46;;;;;;;14.27;10.60;;;16.90;99.90;;;16.49;76.24;101276.41;5055004;28;20434;-72
2023/09/08 05:50:19;;;;;;;15.57;10.95;;;16.80;99.90;;;16.50;76.28;101284.34;5054333;28;20507;-72
2023/09/08 05:52:53;;;;;;;16.13;10.93;;;16.80;99.90;;;16.51;75.91;101274.34;5054667;28;20438;-72
2023/09/08 05:55:26;;;;;;;16.08;10.63;;;16.80;99.90;;;16.54;76.46;101279.41;5054381;28;20479;-72
2023/09/08 05:58:00;;;;;;;15.82;10.80;;;16.90;99.90;;;16.53;76.79;101273.16;5053857;28;20463;-72
2023/09/08 06:00:33;;;;;;;13.70;10.43;;;16.90;99.90;;;16.55;76.27;101273.84;5054048;28;20507;-71
2023/09/08 06:03:07;;;;;;;13.10;10.52;;;16.90;99.90;;;16.50;76.39;101275.41;5053954;28;20511;-72
2023/09/08 06:05:41;;;;;;;14.40;10.82;;;16.90;99.90;;;16.56;76.49;101280.06;5053920;28;20420;-72
2023/09/08 06:08:15;;;;;;;12.02;10.07;;;16.90;99.90;;;16.57;77.80;101271.81;5053871;28;20910;-72
2023/09/08 06:10:48;;;;;;;12.80;10.63;;;16.90;99.90;;;16.58;77.39;101275.31;5053821;28;20473;-72
2023/09/08 06:13:21;;;;;;;15.32;10.30;;;17.00;99.90;;;16.61;77.12;101278.47;5053674;28;20957;-72
2023/09/08 06:15:55;;;;;;;15.13;10.85;;;17.00;99.90;;;16.63;77.65;101275.59;5054251;28;20538;-72
2023/09/08 06:18:31;;;;;;;15.02;10.73;;;17.10;99.90;;;16.66;76.18;101281.47;5053644;28;20511;-72
2023/09/08 06:21:05;;;;;;;15.02;10.93;;;17.10;99.90;;;16.67;77.04;101275.06;5053534;28;20466;-72
2023/09/08 06:23:39;;;;;;;11.67;10.10;;;17.10;99.90;;;16.72;77.49;101280.72;5054214;28;20420;-72
2023/09/08 06:26:12;;;;;;;13.80;10.45;;;17.10;99.90;;;16.76;76.33;101280.34;5054247;28;20423;-72
2023/09/08 06:28:46;;;;;;;15.35;10.93;;;17.20;99.90;;;16.77;76.28;101273.94;5053851;28;20463;-71
2023/09/08 06:31:20;;;;;;;14.67;10.10;;;17.20;99.90;;;16.81;76.31;101277.94;5053347;28;20507;-72
2023/09/08 06:33:53;;;;;;;12.35;8.90;;;17.30;99.90;;;16.84;76.60;101277.56;5054234;28;20424;-72
2023/09/08 06:36:27;;;;;;;14.98;10.95;;;17.30;99.90;;;16.85;76.51;101280.06;5052909;28;20443;-73
2023/09/08 06:39:03;;;;;;;14.27;10.40;;;17.30;99.90;;;16.90;77.44;101279.50;5053205;28;20432;-71
2023/09/08 06:41:37;;;;;;;15.00;10.95;;;17.30;99.90;;;16.94;76.78;101278.09;5053148;28;20553;-72
2023/09/08 06:44:11;;;;;;;13.35;10.68;;;17.40;99.90;;;16.97;76.67;101278.56;5053231;28;20515;-72
2023/09/08 06:46:44;;;;;;;12.70;9.68;;;17.40;99.90;;;17.02;76.93;101280.72;5053948;28;20452;-72
2023/09/08 06:49:19;;;;;;;11.97;8.93;;;17.50;99.90;;;17.06;76.91;101277.41;5054340;28;20239;-71
2023/09/08 06:51:53;;;;;;;14.63;9.13;;;17.50;99.90;;;17.13;76.10;101272.09;5054370;28;20427;-72
2023/09/08 06:54:26;;;;;;;13.77;9.50;;;17.60;99.90;;;17.18;75.92;101283.19;5053563;28;20450;-72
2023/09/08 06:57:00;;;;;;;15.40;9.67;;;17.70;99.90;;;17.24;76.82;101285.13;5053338;28;20878;-72
2023/09/08 06:59:33;;;;;;;15.57;10.18;;;17.70;99.90;;;17.27;76.81;101286.59;5052562;28;20424;-73
2023/09/08 07:02:07;;;;;;;12.93;9.27;;;17.80;99.90;;;17.32;76.01;101287.72;5053150;28;20479;-72
2023/09/08 07:04:41;;;;;;;14.45;10.38;;;17.80;99.90;;;17.35;76.08;101287.34;5052928;28;20431;-72
2023/09/08 07:07:15;;;;;;;12.18;9.70;;;17.90;99.90;;;17.40;76.59;101282.19;5052569;28;20442;-72
2023/09/08 07:09:50;;;;;;;13.25;10.05;;;18.00;99.90;;;17.46;76.51;101288.72;5052892;28;20460;-72
2023/09/08 07:12:23;;;;;;;13.27;10.23;;;18.00;99.90;;;17.50;77.02;101277.28;5052821;28;20520;-72
2023/09/08 07:14:57;;;;;;;13.55;9.70;;;18.10;99.90;;;17.57;76.60;101280.94;5052699;28;20474;-72
2023/09/08 07:17:30;;;;;;;15.03;8.70;;;18.20;99.90;;;17.62;76.16;101281.22;5053778;28;20221;-72
2023/09/08 07:20:03;;;;;;;10.90;9.60;;;18.20;99.90;;;17.70;76.75;101282.97;5052603;28;20510;-72
2023/09/08 07:22:38;;;;;;;13.47;9.47;;;18.30;99.90;;;17.76;75.99;101294.88;5052634;28;20522;-72
2023/09/08 07:25:14;;;;;;;10.68;9.35;;;18.50;99.90;;;17.84;76.25;101286.63;5052774;28;20428;-72
2023/09/08 07:27:47;;;;;;;14.93;10.10;;;18.40;99.90;;;17.90;76.76;101296.69;5053100;28;20475;-72
2023/09/08 07:30:21;;;;;;;11.37;9.17;;;18.50;99.90;;;17.99;75.96;101290.09;5053324;28;20237;-72
2023/09/08 07:32:54;;;;;;;12.95;9.18;;;18.60;99.90;;;18.07;75.47;101287.25;5052817;28;20428;-72
2023/09/08 07:35:28;;;;;;;14.63;9.80;;;18.70;99.90;;;18.17;75.84;101290.47;5052469;28;20433;-72
2023/09/08 07:38:01;;;;;;;12.63;9.13;;;18.80;99.90;;;18.21;75.35;101294.47;5052678;28;20442;-72
2023/09/08 07:40:35;;;;;;;13.00;9.45;;;18.90;99.90;;;18.28;74.81;101284.50;5052298;28;20486;-72
2023/09/08 07:43:09;;;;;;;13.57;9.27;;;18.90;99.90;;;18.45;74.91;101288.59;5052131;28;20435;-72
2023/09/08 07:45:42;;;;;;;11.20;8.88;;;19.10;99.90;;;18.52;75.07;101286.81;5052239;28;20428;-72
2023/09/08 07:48:16;;;;;;;12.30;8.90;;;19.20;99.90;;;18.66;73.92;101290.44;5052039;28;20909;-72
2023/09/08 07:50:49;;;;;;;11.30;8.67;;;19.30;99.90;;;18.68;73.62;101282.91;5053360;28;20226;-72
2023/09/08 07:53:22;;;;;;;12.77;9.25;;;19.30;99.90;;;18.84;73.37;101281.75;5051853;28;20506;-72
2023/09/08 07:55:55;;;;;;;12.67;8.73;;;19.50;99.90;;;18.94;73.58;101274.91;5053216;28;20283;-72
2023/09/08 07:58:29;;;;;;;8.85;7.57;;;19.60;99.90;;;19.04;72.94;101279.97;5052193;28;20920;-72
2023/09/08 08:01:02;;;;;;;9.07;7.20;;;19.80;99.90;;;19.16;72.71;101279.19;5052290;28;20431;-72
2023/09/08 08:03:36;;;;;;;10.52;7.47;;;19.90;99.90;;;19.35;72.28;101279.47;5052456;28;20463;-72
2023/09/08 08:06:09;;;;;;;10.57;7.57;;;20.10;99.90;;;19.53;71.41;101277.00;5051932;28;20447;-72
2023/09/08 08:08:42;;;;;;;9.55;7.68;;;20.40;99.90;;;19.53;71.71;101286.00;5052729;28;20432;-72
2023/09/08 08:11:19;;;;;;;9.10;6.97;;;20.30;99.90;;;19.66;70.98;101283.31;5053181;28;20593;-72
2023/09/08 08:13:53;;;;;;;8.00;7.20;;;20.40;99.90;;;19.66;72.71;101280.59;5052582;28;20482;-72
2023/09/08 08:16:26;;;;;;;10.02;6.97;;;20.40;99.90;;;19.87;70.23;101285.00;5051743;28;20540;-72
2023/09/08 08:18:59;;;;;;;9.98;7.47;;;20.60;99.80;;;19.87;71.64;101278.72;5052847;28;20435;-72
2023/09/08 08:21:33;;;;;;;7.80;6.53;;;20.60;99.90;;;19.95;69.97;101283.97;5052856;28;20572;-73
2023/09/08 08:24:08;;;;;;;9.73;7.00;;;20.60;99.70;;;20.04;70.82;101288.16;5051637;28;20424;-73
2023/09/08 08:26:41;;;;;;;8.10;6.57;;;20.80;99.70;;;20.12;70.68;101287.94;5052756;28;20431;-73
2023/09/08 08:29:15;;;;;;;9.50;6.70;;;20.80;99.80;;;20.14;70.88;101283.13;5053991;28;20200;-73
2023/09/08 08:31:48;;;;;;;7.43;6.70;;;20.90;99.80;;;20.24;70.67;101278.09;5052202;28;20531;-73
2023/09/08 08:34:21;;;;;;;8.10;6.10;;;20.90;99.70;;;20.45;67.53;101286.06;5051998;28;20432;-72
2023/09/08 08:36:54;;;;;;;8.40;6.35;;;21.20;98.10;;;20.48;68.76;101291.06;5052502;28;20490;-72
2023/09/08 08:39:28;;;;;;;9.82;6.65;;;21.20;98.60;;;20.55;68.30;101286.47;5051666;28;20502;-72
2023/09/08 08:42:09;;;;;;;8.75;6.82;;;21.30;98.10;;;20.73;66.26;101286.63;5051835;28;20503;-72
2023/09/08 08:44:45;;;;;;;8.15;6.18;;;21.50;97.00;;;20.86;66.41;101283.03;5051835;28;20479;-72
2023/09/08 08:47:19;;;;;;;9.70;6.22;;;21.60;97.20;;;21.13;64.46;101283.81;5051405;28;20952;-72
2023/09/08 08:49:56;;;;;;;8.98;6.15;;;21.90;96.40;;;21.16;65.11;101273.31;5051958;28;20423;-72
2023/09/08 08:52:30;;;;;;;8.93;6.50;;;22.00;96.70;;;21.37;62.51;101280.31;5051738;28;20426;-72
2023/09/08 08:55:04;;;;;;;7.60;6.45;;;22.20;94.90;;;21.36;63.29;101278.69;5052128;28;20459;-72
2023/09/08 08:57:40;;;;;;;7.18;6.32;;;22.00;95.30;;;21.40;64.52;101274.47;5051212;28;20517;-72
2023/09/08 09:00:18;;;;;;;9.25;7.10;;;22.20;96.20;;;21.55;63.57;101268.69;5052109;28;20462;-72
2023/09/08 09:02:54;;;;;;;9.88;6.13;;;22.30;95.20;;;21.71;63.20;101271.72;5055388;28;20419;-72
2023/09/08 09:05:46;;;;;;;8.40;6.40;;;22.50;95.10;;;21.78;62.64;101265.41;5055510;28;20423;-72
2023/09/08 09:08:23;;;;;;;6.93;6.10;;;22.50;94.90;;;21.78;63.51;101265.41;5055418;28;20424;-72
2023/09/08 09:10:57;;;;;;;9.07;6.70;;;22.60;95.30;;;21.94;62.39;101259.44;5054966;28;20494;-72
2023/09/08 09:13:31;;;;;;;7.47;6.18;;;22.70;94.80;;;22.14;62.35;101262.84;5055258;28;20443;-72
2023/09/08 09:16:10;;;;;;;9.45;6.35;;;22.90;94.70;;;22.21;62.15;101258.16;5055380;28;20522;-72
2023/09/08 09:18:59;;;;;;;8.18;5.70;;;23.00;94.40;;;22.30;62.01;101262.25;5055855;28;20439;-72
2023/09/08 09:21:48;;;;;;;7.97;6.88;;;23.00;94.40;;;22.52;61.00;101260.78;5055232;28;20428;-72
2023/09/08 09:24:33;;;;;;;10.60;6.60;;;23.30;93.70;;;22.59;61.23;101256.09;5055492;28;20451;-72
2023/09/08 09:27:07;;;;;;;7.47;6.22;;;23.40;94.00;;;22.66;61.84;101259.63;5054784;28;20423;-72
2023/09/08 09:29:50;;;;;;;8.50;6.37;;;23.40;94.20;;;22.94;58.55;101247.31;5055648;28;20507;-72
2023/09/08 09:32:30;;;;;;;7.20;5.93;;;23.60;92.70;;;23.13;58.51;101249.78;5054725;28;20913;-72
2023/09/08 09:35:04;;;;;;;8.32;6.53;;;24.00;92.50;;;23.22;59.13;101247.56;5054447;28;20918;-72
2023/09/08 09:37:37;;;;;;;9.70;6.70;;;24.00;92.60;;;23.18;60.12;101257.31;5055249;28;20447;-72
2023/09/08 09:40:12;;;;;;;9.77;7.13;;;23.90;93.30;;;23.24;60.27;101250.91;5054264;28;20953;-67
2023/09/08 09:42:46;;;;;;;10.68;6.72;;;24.00;93.40;;;23.48;59.78;101262.78;5054846;28;20516;-71
2023/09/08 09:45:21;;;;;;;10.65;7.43;;;24.20;93.20;;;23.53;59.62;101255.56;5054996;28;20542;-71
2023/09/08 09:47:56;;;;;;;12.68;7.88;;;24.30;92.90;;;23.62;59.62;101251.44;5054318;28;20898;-71
2023/09/08 09:50:35;;;;;;;10.10;7.13;;;24.40;93.00;;;23.94;56.23;101256.63;5054403;28;20481;-71
2023/09/08 09:53:14;;;;;;;9.52;7.43;;;24.60;91.40;;;23.91;57.84;101262.53;5054515;28;20432;-71
2023/09/08 09:55:48;;;;;;;9.27;6.90;;;24.60;92.00;;;24.09;55.94;101254.25;5054201;28;20465;-71
2023/09/08 09:58:25;;;;;;;10.43;7.50;;;24.70;90.90;;;24.25;55.48;101253.56;5054373;28;20517;-71
2023/09/08 10:01:00;;;;;;;10.80;7.10;;;24.90;90.80;;;24.41;56.00;101252.88;5053988;28;20470;-71
2023/09/08 10:03:35;;;;;;;9.60;7.15;;;25.10;90.90;;;24.44;54.58;101243.34;5054216;28;20586;-71
2023/09/08 10:06:09;;;;;;;10.52;6.60;;;25.20;95.50;;;24.49;53.76;101244.28;5053709;28;20431;-71
2023/09/08 10:08:43;;;;;;;10.80;6.60;;;25.10;89.00;;;24.54;54.38;101241.66;5053702;28;20902;-71
2023/09/08 10:11:20;;;;;;;7.78;6.45;;;25.10;89.60;;;24.70;53.00;101240.91;5053502;28;20924;-71
2023/09/08 10:13:59;;;;;;;10.65;6.45;;;25.30;87.80;;;24.81;53.50;101239.22;5053537;28;20953;-71
2023/09/08 10:16:37;;;;;;;8.20;5.60;;;25.40;88.10;;;24.81;53.68;101236.50;5055011;28;20214;-71
2023/09/08 10:19:14;;;;;;;9.48;6.20;;;25.40;88.60;;;25.09;51.65;101233.00;5053282;28;20488;-72
2023/09/08 10:21:52;;;;;;;8.35;6.28;;;25.70;86.80;;;25.28;50.50;101234.44;5054034;28;20436;-72
2023/09/08 10:24:35;;;;;;;9.10;6.40;;;25.80;84.90;;;25.46;49.06;101234.25;5053694;28;20430;-72
2023/09/08 10:27:11;;;;;;;7.10;6.13;;;26.00;83.00;;;25.62;49.40;101238.94;5053536;28;20936;-72
2023/09/08 10:29:45;;;;;;;8.43;6.07;;;26.20;83.40;;;25.74;48.89;101233.41;5054009;28;20424;-72
2023/09/08 10:32:21;;;;;;;7.65;6.10;;;26.20;82.30;;;25.80;48.88;101231.56;5054554;28;20436;-72
2023/09/08 10:34:57;;;;;;;8.17;6.23;;;26.20;82.90;;;25.86;49.24;101230.59;5053996;28;20889;-72
2023/09/08 10:37:32;;;;;;;6.88;5.90;;;26.40;82.90;;;25.95;48.88;101232.66;5053364;28;20447;-68
2023/09/08 10:40:27;;;;;;;10.02;6.40;;;26.50;82.40;;;26.02;48.60;101225.09;5054533;28;20253;-73